Le Moyen, Louisiana
Current Conditions -  °F | °C
As of 11:35 PM on Wednesday 22 Oct 2014 (Local Time) from KOPL Reporting Station
Clear Clear  
Wind Chill: 58°   Ceiling: Unl
Heat Index: 58°   Visibility: 10mi
Dew Point: 52°   Wind: 5mph
Humidity: 81%   Direction: 360°N
Pressure: 30.1"   Gusts: NA
Location:  30.8264°N, 92.0178°W
Report Text: KOPL 230435Z AUTO 36004KT 10SM CLR 14/11 A3010 RMK AO2 T01430111
Loading
Personal Weather Stations






























Interactive Weather Map
Tropical Storm Tracking
New forecast layout! Learn more

10-Day Weather Forecast

Advertisements
Track Severe Weather on mobile